createdAt,value
2016-04-06T00:00:25.538Z,21.7
2016-04-06T00:01:25.854Z,21.7
2016-04-06T00:02:26.310Z,21.7
2016-04-06T00:03:26.890Z,21.7
2016-04-06T00:04:27.565Z,21.7
2016-04-06T00:05:28.067Z,21.7
2016-04-06T00:06:29.101Z,21.6
2016-04-06T00:07:29.448Z,21.6
2016-04-06T00:08:29.981Z,21.6
2016-04-06T00:09:30.562Z,21.6
2016-04-06T00:10:31.236Z,21.6
2016-04-06T00:11:31.692Z,21.6
2016-04-06T00:12:32.273Z,21.6
2016-04-06T00:13:32.838Z,21.6
2016-04-06T00:14:33.403Z,21.6
2016-04-06T00:15:34.016Z,21.5
2016-04-06T00:16:35.033Z,21.5
2016-04-06T00:17:35.724Z,21.5
2016-04-06T00:18:36.180Z,21.5
2016-04-06T00:19:36.745Z,21.5
2016-04-06T00:20:37.310Z,21.5
2016-04-06T00:21:37.875Z,21.5
2016-04-06T00:22:38.441Z,21.5
2016-04-06T00:23:39.022Z,21.5
2016-04-06T00:24:39.587Z,21.5
2016-04-06T00:25:40.215Z,21.5
2016-04-06T00:26:41.232Z,21.5
2016-04-06T00:27:41.798Z,21.5
2016-04-06T00:28:42.379Z,21.5
2016-04-06T00:29:43.054Z,21.5
2016-04-06T00:30:43.510Z,21.5
2016-04-06T00:31:44.200Z,21.4
2016-04-06T00:32:44.655Z,21.4
2016-04-06T00:33:45.330Z,21.4
2016-04-06T00:34:45.785Z,21.4
2016-04-06T00:35:46.538Z,21.4
2016-04-06T00:36:47.431Z,21.4
2016-04-06T00:37:48.028Z,21.4
2016-04-06T00:38:48.828Z,21.4
2016-04-06T00:39:49.659Z,21.4
2016-04-06T00:40:50.474Z,21.4
2016-04-06T00:41:51.039Z,21.4
2016-04-06T00:42:51.620Z,21.3
2016-04-06T00:43:52.184Z,21.3
2016-04-06T00:44:52.875Z,21.3
2016-04-06T00:45:53.378Z,21.3
2016-04-06T00:46:54.536Z,21.3
2016-04-06T00:47:54.978Z,21.3
2016-04-06T00:48:55.808Z,21.3
2016-04-06T00:49:56.623Z,21.3
2016-04-06T00:50:57.438Z,21.3
2016-04-06T00:51:58.378Z,21.3
2016-04-06T00:52:59.209Z,21.3
2016-04-06T00:54:00.024Z,21.3
2016-04-06T00:55:00.746Z,21.3
2016-04-06T00:56:01.732Z,21.3
2016-04-06T00:57:02.658Z,21.3
2016-04-06T00:58:03.457Z,21.3
2016-04-06T00:59:04.272Z,21.3
2016-04-06T01:00:05.103Z,21.3
2016-04-06T01:01:05.918Z,21.3
2016-04-06T01:02:06.749Z,21.3
2016-04-06T01:03:07.674Z,21.3
2016-04-06T01:04:08.379Z,21.2
2016-04-06T01:05:09.210Z,21.2
2016-04-06T01:06:10.087Z,21.2
2016-04-06T01:07:11.231Z,21.2
2016-04-06T01:08:11.924Z,21.2
2016-04-06T01:09:12.755Z,21.2
2016-04-06T01:10:13.679Z,21.2
2016-04-06T01:11:14.510Z,21.2
2016-04-06T01:12:15.216Z,21.2
2016-04-06T01:13:16.047Z,21.2
2016-04-06T01:14:16.862Z,21.2
2016-04-06T01:15:17.678Z,21.2
2016-04-06T01:16:18.681Z,21.2
2016-04-06T01:17:19.573Z,21.2
2016-04-06T01:18:20.420Z,21.1
2016-04-06T01:19:21.219Z,21.1
2016-04-06T01:20:22.159Z,21.1
2016-04-06T01:21:22.881Z,21.1
2016-04-06T01:22:23.696Z,21.1
2016-04-06T01:23:24.527Z,21.1
2016-04-06T01:24:25.341Z,21.1
2016-04-06T01:25:26.158Z,21.1
2016-04-06T01:26:27.050Z,21.1
2016-04-06T01:27:28.069Z,21.1
2016-04-06T01:28:28.900Z,21.1
2016-04-06T01:29:29.715Z,21.1
2016-04-06T01:30:30.530Z,21.1
2016-04-06T01:31:31.360Z,21.1
2016-04-06T01:32:32.191Z,21.1
2016-04-06T01:33:33.006Z,21.1
2016-04-06T01:34:33.946Z,21.1
2016-04-06T01:35:34.653Z,21.1
2016-04-06T01:36:35.531Z,21.1
2016-04-06T01:37:36.549Z,21.1
2016-04-06T01:38:37.380Z,21.1
2016-04-06T01:39:38.195Z,21.1
2016-04-06T01:40:39.135Z,21.1
2016-04-06T01:41:39.856Z,21.1
2016-04-06T01:42:40.672Z,21.1
2016-04-06T01:43:41.612Z,21.1
2016-04-06T01:44:42.443Z,21.1
2016-04-06T01:45:43.259Z,21.1
2016-04-06T01:46:44.042Z,21
2016-04-06T01:47:45.170Z,21
2016-04-06T01:48:45.875Z,21
2016-04-06T01:49:46.816Z,21
2016-04-06T01:50:47.521Z,21
2016-04-06T01:51:48.461Z,21
2016-04-06T01:52:49.167Z,21
2016-04-06T01:53:50.013Z,21
2016-04-06T01:54:50.814Z,21
2016-04-06T01:55:51.894Z,21
2016-04-06T01:56:53.131Z,21
2016-04-06T01:57:54.041Z,21
2016-04-06T01:58:55.121Z,21
2016-04-06T01:59:56.186Z,21
2016-04-06T02:00:57.266Z,21
2016-04-06T02:01:58.207Z,20.9
2016-04-06T02:02:59.162Z,21
2016-04-06T02:04:00.243Z,20.9
2016-04-06T02:05:01.434Z,20.9
2016-04-06T02:06:02.405Z,20.9
2016-04-06T02:07:03.533Z,20.9
2016-04-06T02:08:04.668Z,20.9
2016-04-06T02:09:05.640Z,20.9
2016-04-06T02:10:06.831Z,20.9
2016-04-06T02:11:07.896Z,20.9
2016-04-06T02:12:08.868Z,20.9
2016-04-06T02:13:10.057Z,20.9
2016-04-06T02:14:11.013Z,20.9
2016-04-06T02:15:12.126Z,20.9
2016-04-06T02:16:13.179Z,20.9
2016-04-06T02:17:14.306Z,20.9
2016-04-06T02:18:15.465Z,20.9
2016-04-06T02:19:16.451Z,20.9
2016-04-06T02:20:17.610Z,20.9
2016-04-06T02:21:18.567Z,20.9
2016-04-06T02:22:19.648Z,20.9
2016-04-06T02:23:20.729Z,20.9
2016-04-06T02:24:21.793Z,20.9
2016-04-06T02:25:22.999Z,20.9
2016-04-06T02:26:24.064Z,20.9
2016-04-06T02:27:25.083Z,20.9
2016-04-06T02:28:26.116Z,20.9
2016-04-06T02:29:27.181Z,20.9
2016-04-06T02:30:28.387Z,20.9
2016-04-06T02:31:29.344Z,20.9
2016-04-06T02:32:30.409Z,20.9
2016-04-06T02:33:31.615Z,20.9
2016-04-06T02:34:32.570Z,20.9
2016-04-06T02:35:33.667Z,20.9
2016-04-06T02:36:34.841Z,20.9
2016-04-06T02:37:35.844Z,20.9
2016-04-06T02:38:37.003Z,20.9
2016-04-06T02:39:37.958Z,20.9
2016-04-06T02:40:39.289Z,20.9
2016-04-06T02:41:40.621Z,20.8
2016-04-06T02:42:42.060Z,20.9
2016-04-06T02:43:43.266Z,20.9
2016-04-06T02:44:44.613Z,20.8
2016-04-06T02:45:45.975Z,20.8
2016-04-06T02:46:47.274Z,20.8
2016-04-06T02:47:48.668Z,20.8
2016-04-06T02:48:49.670Z,20.9
2016-04-06T02:49:51.001Z,20.8
2016-04-06T02:50:52.457Z,20.8
2016-04-06T02:51:53.663Z,20.8
2016-04-06T02:52:55.119Z,20.8
2016-04-06T02:53:56.449Z,20.8
2016-04-06T02:54:57.781Z,20.8
2016-04-06T02:55:58.986Z,20.8
2016-04-06T02:57:00.317Z,20.8
2016-04-06T02:58:01.710Z,20.8
2016-04-06T02:59:02.728Z,20.8
2016-04-06T03:00:04.059Z,20.8
2016-04-06T03:01:05.406Z,20.8
2016-04-06T03:02:06.737Z,20.8
2016-04-06T03:03:08.053Z,20.8
2016-04-06T03:04:09.398Z,20.8
2016-04-06T03:05:10.729Z,20.8
2016-04-06T03:06:12.154Z,20.7
2016-04-06T03:07:13.378Z,20.7
2016-04-06T03:08:14.786Z,20.8
2016-04-06T03:09:15.774Z,20.8
2016-04-06T03:10:17.213Z,20.7
2016-04-06T03:11:18.544Z,20.7
2016-04-06T03:12:19.782Z,20.7
2016-04-06T03:13:21.222Z,20.8
2016-04-06T03:14:22.444Z,20.8
2016-04-06T03:15:23.883Z,20.8
2016-04-06T03:16:25.121Z,20.8
2016-04-06T03:17:26.404Z,20.7
2016-04-06T03:18:27.798Z,20.7
2016-04-06T03:19:28.832Z,20.8
2016-04-06T03:20:30.147Z,20.7
2016-04-06T03:21:31.494Z,20.7
2016-04-06T03:22:32.809Z,20.7
2016-04-06T03:23:34.140Z,20.7
2016-04-06T03:24:35.486Z,20.7
2016-04-06T03:25:36.801Z,20.7
2016-04-06T03:26:38.256Z,20.7
2016-04-06T03:27:39.462Z,20.7
2016-04-06T03:28:40.856Z,20.7
2016-04-06T03:29:41.983Z,20.7
2016-04-06T03:30:43.206Z,20.7
2016-04-06T03:31:44.536Z,20.7
2016-04-06T03:32:45.867Z,20.7
2016-04-06T03:33:47.198Z,20.7
2016-04-06T03:34:48.545Z,20.7
2016-04-06T03:35:50.078Z,20.7
2016-04-06T03:36:51.190Z,20.7
2016-04-06T03:37:52.521Z,20.7
2016-04-06T03:38:53.899Z,20.7
2016-04-06T03:39:54.932Z,20.7
2016-04-06T03:40:56.372Z,20.7
2016-04-06T03:41:57.594Z,20.7
2016-04-06T03:42:58.925Z,20.7
2016-04-06T03:44:00.256Z,20.7
2016-04-06T03:45:01.586Z,20.7
2016-04-06T03:46:03.027Z,20.7
2016-04-06T03:47:04.248Z,20.7
2016-04-06T03:48:05.579Z,20.7
2016-04-06T03:49:06.957Z,20.7
2016-04-06T03:50:07.991Z,20.7
2016-04-06T03:51:09.321Z,20.7
2016-04-06T03:52:10.652Z,20.7
2016-04-06T03:53:11.983Z,20.7
2016-04-06T03:54:13.442Z,20.7
2016-04-06T03:55:14.648Z,20.7
2016-04-06T03:56:15.993Z,20.7
2016-04-06T03:57:17.325Z,20.7
2016-04-06T03:58:19.014Z,20.7
2016-04-06T03:59:20.284Z,20.7
2016-04-06T04:00:21.411Z,20.7
2016-04-06T04:01:22.742Z,20.7
2016-04-06T04:02:23.964Z,20.6
2016-04-06T04:03:25.419Z,20.7
2016-04-06T04:04:26.875Z,20.6
2016-04-06T04:05:28.580Z,20.6
2016-04-06T04:06:30.052Z,20.6
2016-04-06T04:07:31.633Z,20.7
2016-04-06T04:08:32.964Z,20.6
2016-04-06T04:09:34.717Z,20.6
2016-04-06T04:10:35.625Z,20.7
2016-04-06T04:11:37.206Z,20.6
2016-04-06T04:12:38.911Z,20.6
2016-04-06T04:13:40.368Z,20.6
2016-04-06T04:14:41.964Z,20.6
2016-04-06T04:15:43.545Z,20.6
2016-04-06T04:16:45.126Z,20.6
2016-04-06T04:17:46.707Z,20.6
2016-04-06T04:18:48.413Z,20.6
2016-04-06T04:19:49.930Z,20.6
2016-04-06T04:20:50.965Z,20.6
2016-04-06T04:21:52.546Z,20.6
2016-04-06T04:22:54.126Z,20.6
2016-04-06T04:23:55.738Z,20.6
2016-04-06T04:24:57.288Z,20.6
2016-04-06T04:25:58.884Z,20.6
2016-04-06T04:27:00.574Z,20.6
2016-04-06T04:28:02.171Z,20.6
2016-04-06T04:29:03.626Z,20.6
2016-04-06T04:30:05.271Z,20.6
2016-04-06T04:31:06.289Z,20.6
2016-04-06T04:32:07.870Z,20.6
2016-04-06T04:33:09.465Z,20.5
2016-04-06T04:34:11.047Z,20.5
2016-04-06T04:35:12.752Z,20.5
2016-04-06T04:36:14.226Z,20.6
2016-04-06T04:37:15.932Z,20.6
2016-04-06T04:38:17.372Z,20.6
2016-04-06T04:39:19.078Z,20.6
2016-04-06T04:40:20.722Z,20.6
2016-04-06T04:41:21.630Z,20.5
2016-04-06T04:42:23.211Z,20.6
2016-04-06T04:43:24.792Z,20.6
2016-04-06T04:44:26.372Z,20.6
2016-04-06T04:45:27.985Z,20.6
2016-04-06T04:46:29.675Z,20.6
2016-04-06T04:47:31.130Z,20.5
2016-04-06T04:48:32.713Z,20.5
2016-04-06T04:49:34.465Z,20.5
2016-04-06T04:50:36.060Z,20.5
2016-04-06T04:51:36.970Z,20.5
2016-04-06T04:52:38.551Z,20.5
2016-04-06T04:53:40.131Z,20.5
2016-04-06T04:54:41.822Z,20.5
2016-04-06T04:55:43.293Z,20.6
2016-04-06T04:56:44.874Z,20.5
2016-04-06T04:57:46.471Z,20.5
2016-04-06T04:58:48.051Z,20.5
2016-04-06T04:59:49.632Z,20.5
2016-04-06T05:00:51.276Z,20.5
2016-04-06T05:01:52.293Z,20.5
2016-04-06T05:02:53.875Z,20.5
2016-04-06T05:03:55.455Z,20.5
2016-04-06T05:04:57.161Z,20.6
2016-04-06T05:05:58.632Z,20.5
2016-04-06T05:07:00.323Z,20.5
2016-04-06T05:08:01.795Z,20.5
2016-04-06T05:09:03.500Z,20.5
2016-04-06T05:10:04.956Z,20.5
2016-04-06T05:11:06.600Z,20.5
2016-04-06T05:12:07.617Z,20.5
2016-04-06T05:13:09.198Z,20.6
2016-04-06T05:14:10.795Z,20.5
2016-04-06T05:15:12.375Z,20.5
2016-04-06T05:16:13.956Z,20.5
2016-04-06T05:17:15.537Z,20.5
2016-04-06T05:18:17.246Z,20.5
2016-04-06T05:19:18.842Z,20.5
2016-04-06T05:20:20.313Z,20.5
2016-04-06T05:21:22.066Z,20.5
2016-04-06T05:22:22.960Z,20.5
2016-04-06T05:23:24.556Z,20.5
2016-04-06T05:24:26.152Z,20.5
2016-04-06T05:25:27.718Z,20.5
2016-04-06T05:26:29.329Z,20.5
2016-04-06T05:27:30.895Z,20.5
2016-04-06T05:28:32.471Z,20.5
2016-04-06T05:29:34.067Z,20.5
2016-04-06T05:30:35.757Z,20.5
2016-04-06T05:31:37.307Z,20.5
2016-04-06T05:32:38.310Z,20.5
2016-04-06T05:33:39.890Z,20.5
2016-04-06T05:34:41.487Z,20.5
2016-04-06T05:35:43.052Z,20.5
2016-04-06T05:36:44.634Z,20.5
2016-04-06T05:37:46.339Z,20.6
2016-04-06T05:38:47.809Z,20.5
2016-04-06T05:39:49.392Z,20.5
2016-04-06T05:40:50.972Z,20.5
2016-04-06T05:41:48.928Z,20.6
2016-04-06T05:42:49.837Z,20.6
2016-04-06T05:43:51.417Z,20.6
2016-04-06T05:44:53.123Z,20.5
2016-04-06T05:45:54.595Z,20.6
2016-04-06T05:46:52.378Z,20.6
2016-04-06T05:47:50.288Z,20.7
2016-04-06T05:48:51.743Z,20.7
2016-04-06T05:49:49.527Z,20.7
2016-04-06T05:50:51.108Z,20.7
2016-04-06T05:51:52.751Z,20.7
2016-04-06T05:52:53.894Z,20.8
2016-04-06T05:53:55.366Z,20.8
2016-04-06T05:54:56.947Z,20.8
2016-04-06T05:55:58.668Z,20.8
2016-04-06T05:57:00.108Z,20.8
2016-04-06T05:58:02.095Z,20.8
2016-04-06T05:59:03.286Z,20.8
2016-04-06T06:00:04.977Z,20.9
2016-04-06T06:01:06.447Z,20.9
2016-04-06T06:02:08.091Z,20.9
2016-04-06T06:03:09.109Z,20.9
2016-04-06T06:04:10.717Z,20.9
2016-04-06T06:05:12.327Z,20.9
2016-04-06T06:06:13.953Z,21
2016-04-06T06:07:15.704Z,21
2016-04-06T06:08:17.206Z,21
2016-04-06T06:09:18.840Z,21
2016-04-06T06:10:20.472Z,21
2016-04-06T06:11:22.177Z,21
2016-04-06T06:12:23.822Z,21.1
2016-04-06T06:13:24.729Z,21.1
2016-04-06T06:14:26.315Z,21.1
2016-04-06T06:15:27.918Z,21.1
2016-04-06T06:16:29.504Z,21.1
2016-04-06T06:17:31.090Z,21.1
2016-04-06T06:18:32.676Z,21.2
2016-04-06T06:19:34.274Z,21.2
2016-04-06T06:20:35.857Z,21.2
2016-04-06T06:21:37.440Z,21.2
2016-04-06T06:22:38.820Z,21.2
2016-04-06T06:23:39.857Z,21.3
2016-04-06T06:24:41.423Z,21.3
2016-04-06T06:25:42.880Z,21.3
2016-04-06T06:26:44.102Z,21.3
2016-04-06T06:27:45.417Z,21.3
2016-04-06T06:28:46.765Z,21.3
2016-04-06T06:29:48.081Z,21.3
2016-04-06T06:30:49.412Z,21.3
2016-04-06T06:31:50.743Z,21.4
2016-04-06T06:32:52.152Z,21.4
2016-04-06T06:33:53.140Z,21.4
2016-04-06T06:34:54.485Z,21.5
2016-04-06T06:35:55.801Z,21.5
2016-04-06T06:36:57.132Z,21.5
2016-04-06T06:37:58.479Z,21.6
2016-04-06T06:38:59.918Z,21.6
2016-04-06T06:40:01.140Z,21.6
2016-04-06T06:41:02.455Z,21.7
2016-04-06T06:42:03.787Z,21.7
2016-04-06T06:43:05.179Z,21.7
2016-04-06T06:44:06.198Z,21.7
2016-04-06T06:45:07.529Z,21.8
2016-04-06T06:46:08.985Z,21.7
2016-04-06T06:47:10.190Z,21.8
2016-04-06T06:48:11.630Z,21.8
2016-04-06T06:49:12.836Z,21.9
2016-04-06T06:50:14.167Z,21.9
2016-04-06T06:51:15.514Z,21.9
2016-04-06T06:52:16.578Z,21.9
2016-04-06T06:53:17.972Z,21.9
2016-04-06T06:54:18.990Z,21.9
2016-04-06T06:55:20.071Z,22
2016-04-06T06:56:21.152Z,22
2016-04-06T06:57:22.220Z,22
2016-04-06T06:58:23.300Z,22
2016-04-06T06:59:24.365Z,22.1
2016-04-06T07:00:25.555Z,22.1
2016-04-06T07:01:26.512Z,22.1
2016-04-06T07:02:27.593Z,22.1
2016-04-06T07:03:28.721Z,22.1
2016-04-06T07:04:29.754Z,22.1
2016-04-06T07:05:30.554Z,22.1
2016-04-06T07:06:31.494Z,22.2
2016-04-06T07:07:32.465Z,22.3
2016-04-06T07:08:33.530Z,22.3
2016-04-06T07:09:34.612Z,22.3
2016-04-06T07:10:35.302Z,22.3
2016-04-06T07:11:35.492Z,22.4
2016-04-06T07:12:35.807Z,22.4
2016-04-06T07:13:36.184Z,22.4
2016-04-06T07:14:37.203Z,22.4
2016-04-06T07:15:37.127Z,22.5
2016-04-06T07:16:36.864Z,22.5
2016-04-06T07:17:36.367Z,22.5
2016-04-06T07:18:36.182Z,22.5
2016-04-06T07:19:35.481Z,22.5
2016-04-06T07:20:34.782Z,22.5
2016-04-06T07:21:34.097Z,22.5
2016-04-06T07:22:32.865Z,22.5
2016-04-06T07:23:32.103Z,22.5
2016-04-06T07:24:32.996Z,22.5
2016-04-06T07:25:32.295Z,22.5
2016-04-06T07:26:31.344Z,22.5
2016-04-06T07:27:30.144Z,22.5
2016-04-06T07:28:29.553Z,22.4
2016-04-06T07:29:28.227Z,22.5
2016-04-06T07:30:27.058Z,22.4
2016-04-06T07:31:25.592Z,22.4
2016-04-06T07:32:23.876Z,22.4
2016-04-06T07:33:22.219Z,22.4
2016-04-06T07:34:23.239Z,22.4
2016-04-06T07:35:21.272Z,22.4
2016-04-06T07:36:19.557Z,22.4
2016-04-06T07:37:17.840Z,22.4
2016-04-06T07:38:15.874Z,22.4
2016-04-06T07:39:14.174Z,22.4
2016-04-06T07:40:12.708Z,22.4
2016-04-06T07:41:11.132Z,22.4
2016-04-06T07:42:09.276Z,22.5
2016-04-06T07:43:07.622Z,22.4
2016-04-06T07:44:08.640Z,22.4
2016-04-06T07:45:06.674Z,22.4
2016-04-06T07:46:04.709Z,22.4
2016-04-06T07:47:02.743Z,22.4
2016-04-06T07:48:00.776Z,22.5
2016-04-06T07:48:58.920Z,22.5
2016-04-06T07:49:56.954Z,22.4
2016-04-06T07:50:54.612Z,22.4
2016-04-06T07:51:56.193Z,22.4
2016-04-06T07:52:57.586Z,22.5
2016-04-06T07:53:58.605Z,22.4
2016-04-06T07:55:00.045Z,22.5
2016-04-06T07:56:01.250Z,22.5
2016-04-06T07:57:02.706Z,22.5
2016-04-06T07:58:03.928Z,22.5
2016-04-06T07:59:05.259Z,22.5
2016-04-06T08:00:06.949Z,22.5
2016-04-06T08:01:08.155Z,22.6
2016-04-06T08:02:09.735Z,22.6
2016-04-06T08:03:11.364Z,22.6
2016-04-06T08:04:12.382Z,22.6
2016-04-06T08:05:13.962Z,22.6
2016-04-06T08:06:15.668Z,22.6
2016-04-06T08:07:17.124Z,22.6
2016-04-06T08:08:18.814Z,22.7
2016-04-06T08:09:16.724Z,22.7
2016-04-06T08:10:14.273Z,22.6
2016-04-06T08:11:12.072Z,22.7
2016-04-06T08:12:09.825Z,22.6
2016-04-06T08:13:07.921Z,22.6
2016-04-06T08:14:08.924Z,22.7
2016-04-06T08:15:07.208Z,22.7
2016-04-06T08:16:05.492Z,22.7
2016-04-06T08:17:03.526Z,22.7
2016-04-06T08:18:01.809Z,22.7
2016-04-06T08:18:59.593Z,22.7
2016-04-06T08:19:57.643Z,22.7
2016-04-06T08:20:55.661Z,22.6
2016-04-06T08:21:53.555Z,22.6
2016-04-06T08:22:51.276Z,22.7
2016-04-06T08:23:52.420Z,22.6
2016-04-06T08:24:50.939Z,22.6
2016-04-06T08:25:49.597Z,22.7
2016-04-06T08:26:48.428Z,22.7
2016-04-06T08:27:46.821Z,22.7
2016-04-06T08:28:44.996Z,22.7
2016-04-06T08:29:43.405Z,22.7
2016-04-06T08:30:41.705Z,22.7
2016-04-06T08:31:39.878Z,22.7
2016-04-06T08:32:38.303Z,22.7
2016-04-06T08:33:39.213Z,22.7
2016-04-06T08:34:37.497Z,22.7
2016-04-06T08:35:35.765Z,22.7
2016-04-06T08:36:34.549Z,22.7
2016-04-06T08:37:33.473Z,22.7
2016-04-06T08:38:32.147Z,22.7
2016-04-06T08:39:31.307Z,22.7
2016-04-06T08:40:30.232Z,22.7
2016-04-06T08:41:29.530Z,22.7
2016-04-06T08:42:29.018Z,22.7
2016-04-06T08:43:29.911Z,22.7
2016-04-06T08:44:28.961Z,22.7
2016-04-06T08:45:27.885Z,22.7
2016-04-06T08:46:26.557Z,22.7
2016-04-06T08:47:25.966Z,22.6
2016-04-06T08:48:24.641Z,22.7
2016-04-06T08:49:23.440Z,22.6
2016-04-06T08:50:22.270Z,22.6
2016-04-06T08:51:20.884Z,22.6
2016-04-06T08:52:19.620Z,22.7
2016-04-06T08:53:20.639Z,22.6
2016-04-06T08:54:19.438Z,22.6
2016-04-06T08:55:18.222Z,22.6
2016-04-06T08:56:17.131Z,22.5
2016-04-06T08:57:15.806Z,22.5
2016-04-06T08:58:14.589Z,22.5
2016-04-06T08:59:13.514Z,22.5
2016-04-06T09:00:12.453Z,22.5
2016-04-06T09:01:11.489Z,22.5
2016-04-06T09:02:10.725Z,22.5
2016-04-06T09:03:11.603Z,22.5
2016-04-06T09:04:11.168Z,22.5
2016-04-06T09:05:10.983Z,22.4
2016-04-06T09:06:10.517Z,22.4
2016-04-06T09:07:10.333Z,22.4
2016-04-06T09:08:10.132Z,22.3
2016-04-06T09:09:10.197Z,22.4
2016-04-06T09:10:10.496Z,22.3
2016-04-06T09:11:10.827Z,22.4
2016-04-06T09:12:11.565Z,22.4
2016-04-06T09:13:12.457Z,22.3
2016-04-06T09:14:13.039Z,22.4
2016-04-06T09:15:13.885Z,22.4
2016-04-06T09:16:14.434Z,22.4
2016-04-06T09:17:14.984Z,22.3
2016-04-06T09:18:15.549Z,22.4
2016-04-06T09:19:16.505Z,22.4
2016-04-06T09:20:17.429Z,22.4
2016-04-06T09:21:17.902Z,22.4
2016-04-06T09:22:18.388Z,22.4
2016-04-06T09:23:19.515Z,22.4
2016-04-06T09:24:20.004Z,22.5
2016-04-06T09:25:20.537Z,22.5
2016-04-06T09:26:21.118Z,22.5
2016-04-06T09:27:21.683Z,22.5
2016-04-06T09:28:22.233Z,22.5
2016-04-06T09:29:22.798Z,22.5
2016-04-06T09:30:23.488Z,22.5
2016-04-06T09:31:23.944Z,22.5
2016-04-06T09:32:24.681Z,22.5
2016-04-06T09:33:25.700Z,22.5
2016-04-06T09:34:26.764Z,22.5
2016-04-06T09:35:27.845Z,22.4
2016-04-06T09:36:28.801Z,22.4
2016-04-06T09:37:30.244Z,22.4
2016-04-06T09:38:31.450Z,22.4
2016-04-06T09:39:32.905Z,22.4
2016-04-06T09:40:34.111Z,22.4
2016-04-06T09:41:35.692Z,22.4
2016-04-06T09:42:37.324Z,22.3
2016-04-06T09:43:38.343Z,22.3
2016-04-06T09:44:36.143Z,22.3
2016-04-06T09:45:34.029Z,22.3
2016-04-06T09:46:31.969Z,22.3
2016-04-06T09:47:29.972Z,22.3
2016-04-06T09:48:28.003Z,22.2
2016-04-06T09:49:26.146Z,22.2
2016-04-06T09:50:24.181Z,22.2
2016-04-06T09:51:22.214Z,22.2
2016-04-06T09:52:20.202Z,22.2
2016-04-06T09:53:21.219Z,22.2
2016-04-06T09:54:19.488Z,22.2
2016-04-06T09:55:17.522Z,22.2
2016-04-06T09:56:15.571Z,22.2
2016-04-06T09:57:13.715Z,22.2
2016-04-06T09:58:11.624Z,22.2
2016-04-06T09:59:09.767Z,22.2
2016-04-06T10:00:07.942Z,22.2
2016-04-06T10:01:05.725Z,22.2
2016-04-06T10:02:03.823Z,22.3
2016-04-06T10:03:04.965Z,22.3
2016-04-06T10:04:02.999Z,22.3
2016-04-06T10:05:00.909Z,22.3
2016-04-06T10:05:58.942Z,22.3
2016-04-06T10:06:56.976Z,22.3
2016-04-06T10:07:55.120Z,22.3
2016-04-06T10:08:53.028Z,22.3
2016-04-06T10:09:51.187Z,22.3
2016-04-06T10:10:49.472Z,22.2
2016-04-06T10:11:47.817Z,22.3
2016-04-06T10:12:48.758Z,22.2
2016-04-06T10:13:47.011Z,22.2
2016-04-06T10:14:45.294Z,22.3
2016-04-06T10:15:43.578Z,22.2
2016-04-06T10:17:40.147Z,22.2
2016-04-06T10:18:38.446Z,22.2
2016-04-06T10:19:36.714Z,22.2
2016-04-06T10:20:34.764Z,22.2
2016-04-06T10:21:33.219Z,22.2
2016-04-06T10:22:34.238Z,22.2
2016-04-06T10:23:32.413Z,22.2
2016-04-06T10:24:30.837Z,22.2
2016-04-06T10:25:29.118Z,22.2
2016-04-06T10:26:27.277Z,22.2
2016-04-06T10:27:25.546Z,22.2
2016-04-06T10:28:23.846Z,22.2
2016-04-06T10:29:22.254Z,22.3
2016-04-06T10:30:20.147Z,22.3
2016-04-06T10:31:18.244Z,22.3
2016-04-06T10:32:19.262Z,22.3
2016-04-06T10:33:17.046Z,22.3
2016-04-06T10:34:18.626Z,22.3
2016-04-06T10:35:20.318Z,22.3
2016-04-06T10:36:21.789Z,22.3
2016-04-06T10:37:23.228Z,22.2
2016-04-06T10:38:24.434Z,22.2
2016-04-06T10:39:25.781Z,22.2
2016-04-06T10:40:26.862Z,22.2
2016-04-06T10:41:27.989Z,22.2
2016-04-06T10:42:28.992Z,22.2
2016-04-06T10:43:29.933Z,22.1
2016-04-06T10:44:30.641Z,22.2
2016-04-06T10:45:31.472Z,22.1
2016-04-06T10:46:32.412Z,22.1
2016-04-06T10:47:33.118Z,22.1
2016-04-06T10:48:33.933Z,22.1
2016-04-06T10:49:35.013Z,22.1
2016-04-06T10:50:36.079Z,22.1
2016-04-06T10:51:37.222Z,22.1
2016-04-06T10:52:38.241Z,22.1
2016-04-06T10:53:39.290Z,22.1
2016-04-06T10:54:40.621Z,22.1
2016-04-06T10:55:41.952Z,22.1
2016-04-06T10:56:43.282Z,22.1
2016-04-06T10:57:44.613Z,22.1
2016-04-06T10:58:45.929Z,22.1
2016-04-06T10:59:47.384Z,22.1
2016-04-06T11:00:48.590Z,22.1
2016-04-06T11:01:50.233Z,22.1
2016-04-06T11:02:51.377Z,22.1
2016-04-06T11:03:52.832Z,22.1
2016-04-06T11:04:54.412Z,22.1
2016-04-06T11:05:56.040Z,22.1
2016-04-06T11:06:57.576Z,22.1
2016-04-06T11:07:59.156Z,22.1
2016-04-06T11:09:00.736Z,22.1
2016-04-06T11:10:02.334Z,22.1
2016-04-06T11:11:03.898Z,22.1
2016-04-06T11:12:05.541Z,22
2016-04-06T11:13:06.560Z,22
2016-04-06T11:14:08.142Z,22
2016-04-06T11:15:09.737Z,22
2016-04-06T11:16:11.317Z,22
2016-04-06T11:17:12.883Z,22.1
2016-04-06T11:18:14.480Z,22
2016-04-06T11:19:16.060Z,22
2016-04-06T11:20:17.641Z,22
2016-04-06T11:21:19.331Z,22.1
2016-04-06T11:22:17.053Z,22.1
2016-04-06T11:23:18.102Z,22
2016-04-06T11:24:15.980Z,22
2016-04-06T11:25:13.639Z,22.1
2016-04-06T11:26:11.532Z,22
2016-04-06T11:27:09.207Z,22.1
2016-04-06T11:28:06.975Z,22
2016-04-06T11:29:04.759Z,22.1
2016-04-06T11:30:02.527Z,22.1
2016-04-06T11:31:00.420Z,22.1
2016-04-06T11:31:58.157Z,22.1
2016-04-06T11:32:59.301Z,22
2016-04-06T11:33:56.960Z,22
2016-04-06T11:34:54.744Z,22
2016-04-06T11:35:52.512Z,22
2016-04-06T11:36:50.296Z,21.9
2016-04-06T11:37:48.065Z,21.9
2016-04-06T11:38:45.848Z,21.9
2016-04-06T11:39:43.632Z,21.9
2016-04-06T11:40:45.213Z,21.9
2016-04-06T11:41:46.857Z,21.9
2016-04-06T11:42:47.875Z,21.9
2016-04-06T11:43:49.456Z,21.9
2016-04-06T11:44:51.036Z,21.9
2016-04-06T11:45:52.617Z,21.9
2016-04-06T11:46:54.198Z,21.9
2016-04-06T11:47:55.779Z,21.9
2016-04-06T11:48:57.360Z,21.8
2016-04-06T11:49:59.066Z,21.9
2016-04-06T11:51:00.553Z,21.8
2016-04-06T11:52:02.196Z,21.8
2016-04-06T11:53:03.183Z,21.8
2016-04-06T11:54:04.888Z,21.9
2016-04-06T11:55:06.360Z,21.8
2016-04-06T11:56:07.941Z,21.8
2016-04-06T11:57:09.522Z,21.8
2016-04-06T11:58:11.103Z,21.8
2016-04-06T11:59:12.683Z,21.8
2016-04-06T12:00:14.265Z,21.8
2016-04-06T12:01:15.845Z,21.8
2016-04-06T12:02:17.238Z,21.8
2016-04-06T12:03:18.382Z,21.8
2016-04-06T12:04:19.713Z,21.8
2016-04-06T12:05:20.918Z,21.8
2016-04-06T12:06:22.234Z,21.8
2016-04-06T12:07:23.564Z,21.8
2016-04-06T12:08:24.903Z,21.8
2016-04-06T12:09:26.233Z,21.9
2016-04-06T12:10:27.563Z,21.9
2016-04-06T12:11:28.879Z,21.8
2016-04-06T12:12:30.272Z,21.9
2016-04-06T12:13:31.291Z,21.9
2016-04-06T12:14:32.624Z,21.9
2016-04-06T12:15:33.955Z,21.9
2016-04-06T12:16:35.395Z,21.9
2016-04-06T12:17:36.603Z,21.9
2016-04-06T12:18:37.934Z,21.9
2016-04-06T12:19:39.296Z,21.9
2016-04-06T12:20:40.595Z,21.9
2016-04-06T12:21:42.036Z,21.9
2016-04-06T12:22:43.303Z,21.9
2016-04-06T12:23:44.447Z,21.9
2016-04-06T12:24:45.653Z,21.9
2016-04-06T12:25:46.984Z,21.9
2016-04-06T12:26:48.314Z,21.9
2016-04-06T12:27:49.645Z,21.9
2016-04-06T12:28:51.085Z,21.9
2016-04-06T12:29:52.291Z,21.8
2016-04-06T12:30:53.622Z,21.8
2016-04-06T12:31:54.953Z,21.8
2016-04-06T12:32:56.346Z,21.8
2016-04-06T12:33:57.350Z,21.8
2016-04-06T12:34:58.805Z,21.8
2016-04-06T12:36:00.010Z,21.8
2016-04-06T12:37:01.341Z,21.8
2016-04-06T12:38:02.782Z,21.8
2016-04-06T12:39:04.252Z,21.8
2016-04-06T12:40:05.835Z,21.7
2016-04-06T12:41:07.415Z,21.7
2016-04-06T12:42:08.996Z,21.7
2016-04-06T12:43:10.638Z,21.7
2016-04-06T12:44:11.657Z,21.7
2016-04-06T12:45:13.238Z,21.7
2016-04-06T12:46:14.929Z,21.7
2016-04-06T12:47:16.399Z,21.7
2016-04-06T12:48:17.980Z,21.7
2016-04-06T12:49:19.562Z,21.7
2016-04-06T12:50:21.267Z,21.7
2016-04-06T12:51:22.753Z,21.7
2016-04-06T12:52:24.428Z,21.7
2016-04-06T12:53:26.073Z,21.7
2016-04-06T12:54:26.965Z,21.7
2016-04-06T12:55:28.545Z,21.7
2016-04-06T12:56:30.128Z,21.7
2016-04-06T12:57:31.707Z,21.7
2016-04-06T12:58:33.291Z,21.7
2016-04-06T12:59:34.638Z,21.7
2016-04-06T13:00:35.953Z,21.7
2016-04-06T13:01:37.284Z,21.7
2016-04-06T13:02:38.724Z,21.7
2016-04-06T13:03:39.991Z,21.7
2016-04-06T13:04:41.011Z,21.7
2016-04-06T13:05:42.341Z,21.7
2016-04-06T13:06:43.782Z,21.7
2016-04-06T13:07:44.987Z,21.7
2016-04-06T13:08:46.319Z,21.7
2016-04-06T13:09:47.649Z,21.7
2016-04-06T13:10:49.229Z,21.7
2016-04-06T13:11:50.826Z,21.7
2016-04-06T13:12:52.397Z,21.7
2016-04-06T13:13:54.041Z,21.7
2016-04-06T13:14:55.058Z,21.7
2016-04-06T13:15:56.640Z,21.7
2016-04-06T13:16:58.221Z,21.7
2016-04-06T13:17:59.911Z,21.7
2016-04-06T13:19:01.382Z,21.7
2016-04-06T13:20:02.963Z,21.7
2016-04-06T13:21:04.543Z,21.7
2016-04-06T13:22:06.124Z,21.7
2016-04-06T13:23:07.705Z,21.7
2016-04-06T13:24:09.349Z,21.7
2016-04-06T13:26:12.057Z,21.7
2016-04-06T13:27:13.529Z,21.7
2016-04-06T13:28:15.109Z,21.7
2016-04-06T13:29:16.690Z,21.7
2016-04-06T13:30:18.271Z,21.7
2016-04-06T13:31:19.852Z,21.7
2016-04-06T13:32:21.433Z,21.7